Time;durP1;ratioP1;P1;durP2;ratioP2;P2;SDS_P1;SDS_P2;PMS_P1;PMS_P2;Temp;Humidity;BMP_temperature;BMP_pressure;BME280_temperature;BME280_humidity;BME280_pressure;Samples;Min_cycle;Max_cycle;Signal;HPM_P1;HPM_P2
2022/04/24 00:02:04;;;;;;;17.58;12.52;;;19.70;45.70;;;;;;5014979;28;20279;-70
2022/04/24 00:04:31;;;;;;;17.88;12.65;;;19.70;45.70;;;;;;5014894;28;20691;-70
2022/04/24 00:06:59;;;;;;;18.30;13.25;;;19.70;46.30;;;;;;5014713;28;20282;-70
2022/04/24 00:09:26;;;;;;;17.00;12.65;;;19.70;45.90;;;;;;5015679;28;20193;-69
2022/04/24 00:11:54;;;;;;;19.02;13.05;;;19.70;45.80;;;;;;5015913;28;20196;-69
2022/04/24 00:14:21;;;;;;;15.18;11.65;;;19.70;45.90;;;;;;5015448;28;20245;-70
2022/04/24 00:16:48;;;;;;;16.02;12.32;;;19.70;45.80;;;;;;5014282;28;20204;-69
2022/04/24 00:19:18;;;;;;;14.52;12.13;;;19.70;45.90;;;;;;5014964;28;20196;-69
2022/04/24 00:21:45;;;;;;;15.95;12.20;;;19.70;45.80;;;;;;5015483;28;20568;-69
2022/04/24 00:24:14;;;;;;;17.60;12.05;;;19.60;45.90;;;;;;5014108;28;20220;-70
2022/04/24 00:26:41;;;;;;;18.45;13.05;;;19.70;46.10;;;;;;5015817;28;20655;-70
2022/04/24 00:29:08;;;;;;;16.88;12.77;;;19.70;46.10;;;;;;5014110;28;20688;-70
2022/04/24 00:31:36;;;;;;;16.73;11.25;;;19.60;46.10;;;;;;5013020;28;20201;-70
2022/04/24 00:34:03;;;;;;;15.95;11.32;;;19.60;46.00;;;;;;5015424;28;20236;-69
2022/04/24 00:36:30;;;;;;;17.38;11.70;;;19.60;46.20;;;;;;5013895;28;20220;-69
2022/04/24 00:38:57;;;;;;;14.80;11.70;;;19.60;46.20;;;;;;5013991;28;20201;-69
2022/04/24 00:41:25;;;;;;;18.15;12.10;;;19.60;46.40;;;;;;5015532;28;20189;-70
2022/04/24 00:43:53;;;;;;;16.70;12.13;;;19.60;46.30;;;;;;5013666;28;20639;-70
2022/04/24 00:46:54;;;;;;;15.88;11.07;;;19.60;47.00;;;;;;5014799;28;20327;-70
2022/04/24 00:49:21;;;;;;;15.60;11.82;;;19.50;46.40;;;;;;5013770;28;20580;-70
2022/04/24 00:51:48;;;;;;;16.20;11.60;;;19.50;46.40;;;;;;5013768;28;20663;-70
2022/04/24 00:54:16;;;;;;;13.85;11.38;;;19.50;46.50;;;;;;5013607;28;20596;-70
2022/04/24 00:56:44;;;;;;;15.25;11.10;;;19.50;46.30;;;;;;5015081;28;20769;-69
2022/04/24 00:59:12;;;;;;;15.13;11.65;;;19.50;46.30;;;;;;5014975;28;20196;-70
2022/04/24 01:01:40;;;;;;;15.95;11.13;;;19.50;46.40;;;;;;5014983;28;20204;-70
2022/04/24 01:04:08;;;;;;;14.93;10.93;;;19.50;46.60;;;;;;5013407;28;20216;-69
2022/04/24 01:06:36;;;;;;;14.48;11.40;;;19.50;48.80;;;;;;5013570;28;20189;-70
2022/04/24 01:09:14;;;;;;;12.55;10.63;;;19.50;49.00;;;;;;5013354;28;20205;-70
2022/04/24 01:11:41;;;;;;;16.27;11.93;;;19.50;48.90;;;;;;5014525;28;20553;-69
2022/04/24 01:14:09;;;;;;;11.75;10.43;;;19.50;49.00;;;;;;5014622;28;20717;-70
2022/04/24 01:16:36;;;;;;;13.40;10.27;;;19.50;48.80;;;;;;5013387;28;20223;-70
2022/04/24 01:19:03;;;;;;;14.85;11.05;;;19.50;48.70;;;;;;5013300;28;20196;-70
2022/04/24 01:21:32;;;;;;;14.52;10.50;;;19.50;48.70;;;;;;5014634;28;20200;-69
2022/04/24 01:23:59;;;;;;;12.65;10.43;;;19.50;48.50;;;;;;5014761;28;20201;-69
2022/04/24 01:26:26;;;;;;;13.55;10.50;;;19.50;48.40;;;;;;5013499;28;20215;-70
2022/04/24 01:28:52;;;;;;;12.27;10.07;;;19.50;48.30;;;;;;5013486;28;20228;-70
2022/04/24 01:31:20;;;;;;;13.77;10.52;;;19.50;48.20;;;;;;5013725;28;20203;-69
2022/04/24 01:33:46;;;;;;;13.13;10.65;;;19.50;48.10;;;;;;5014230;28;20223;-70
2022/04/24 01:36:14;;;;;;;13.38;10.95;;;19.50;48.00;;;;;;5013242;28;20220;-70
2022/04/24 01:38:42;;;;;;;12.23;10.68;;;19.50;47.90;;;;;;5031808;28;20268;-70
2022/04/24 01:41:10;;;;;;;12.65;10.25;;;19.50;47.80;;;;;;5037382;28;20185;-70
2022/04/24 01:43:37;;;;;;;11.55;9.95;;;19.50;47.70;;;;;;5014141;28;20217;-70
2022/04/24 01:46:05;;;;;;;11.95;9.85;;;19.50;47.70;;;;;;5012788;28;20196;-70
2022/04/24 01:48:33;;;;;;;12.65;10.45;;;19.50;47.70;;;;;;5012798;28;20246;-70
2022/04/24 01:51:01;;;;;;;14.73;10.50;;;19.50;47.60;;;;;;5012738;28;20367;-70
2022/04/24 01:53:28;;;;;;;10.82;9.63;;;19.50;47.60;;;;;;5013911;28;20212;-70
2022/04/24 01:55:58;;;;;;;12.10;10.32;;;19.40;47.40;;;;;;5012705;28;20248;-70
2022/04/24 01:58:25;;;;;;;12.25;9.85;;;19.50;47.50;;;;;;5012474;28;20311;-70
2022/04/24 02:00:52;;;;;;;12.20;10.13;;;19.50;47.60;;;;;;5012491;28;20211;-70
2022/04/24 02:03:19;;;;;;;11.50;9.82;;;19.50;47.60;;;;;;5012456;28;20635;-70
2022/04/24 02:05:46;;;;;;;13.77;10.63;;;19.50;47.60;;;;;;5012638;28;20212;-70
2022/04/24 02:08:13;;;;;;;11.82;10.50;;;19.50;47.50;;;;;;5012525;28;20228;-70
2022/04/24 02:10:41;;;;;;;11.73;9.93;;;19.40;47.50;;;;;;5012506;28;20228;-70
2022/04/24 02:13:09;;;;;;;12.82;9.88;;;19.50;47.50;;;;;;5013815;28;20243;-70
2022/04/24 02:15:37;;;;;;;12.52;10.13;;;19.40;47.40;;;;;;5013584;28;20708;-70
2022/04/24 02:20:54;;;;;;;13.02;9.93;;;19.50;47.40;;;;;;5002740;23;20339;-70
2022/04/24 02:23:21;;;;;;;10.98;9.68;;;19.40;47.30;;;;;;4995551;28;20231;-70
2022/04/24 02:25:48;;;;;;;11.73;9.52;;;19.40;47.30;;;;;;5012329;28;20280;-70
2022/04/24 02:28:17;;;;;;;10.25;9.02;;;19.40;47.20;;;;;;5012319;28;20231;-70
2022/04/24 02:30:44;;;;;;;11.65;9.75;;;19.40;47.30;;;;;;5012491;28;20620;-70
2022/04/24 02:33:11;;;;;;;11.35;9.25;;;19.40;47.30;;;;;;5012246;28;20621;-70
2022/04/24 02:35:38;;;;;;;9.30;8.40;;;19.40;47.30;;;;;;5012215;28;20240;-70
2022/04/24 02:38:06;;;;;;;10.68;9.50;;;19.40;47.30;;;;;;5013681;28;20319;-70
2022/04/24 02:40:34;;;;;;;11.25;9.20;;;19.40;48.00;;;;;;5012225;28;20188;-70
2022/04/24 02:43:01;;;;;;;10.82;9.07;;;19.40;47.40;;;;;;5012014;28;20670;-70
2022/04/24 02:45:30;;;;;;;10.90;9.23;;;19.40;47.90;;;;;;5012178;28;20193;-70
2022/04/24 02:47:57;;;;;;;10.43;9.32;;;19.40;47.30;;;;;;5012411;28;20291;-70
2022/04/24 02:50:24;;;;;;;11.25;9.80;;;19.40;47.30;;;;;;5013605;28;20216;-70
2022/04/24 02:52:52;;;;;;;10.18;9.13;;;19.40;47.40;;;;;;5011982;28;20200;-70
2022/04/24 02:55:19;;;;;;;10.75;9.68;;;19.40;47.50;;;;;;5015286;28;20297;-70
2022/04/24 02:57:47;;;;;;;10.35;8.95;;;19.40;47.30;;;;;;5015995;28;20201;-70
2022/04/24 03:00:19;;;;;;;10.55;9.48;;;19.40;47.30;;;;;;5015734;28;20201;-70
2022/04/24 03:02:48;;;;;;;10.55;9.35;;;19.40;47.30;;;;;;5015858;28;20284;-69
2022/04/24 03:05:16;;;;;;;9.60;8.70;;;19.40;47.20;;;;;;5015578;28;20229;-70
2022/04/24 03:07:43;;;;;;;11.98;9.02;;;19.40;47.20;;;;;;5015631;28;20706;-70
2022/04/24 03:10:10;;;;;;;9.93;8.93;;;19.40;47.20;;;;;;5015570;28;20275;-70
2022/04/24 03:12:37;;;;;;;10.27;9.18;;;19.30;47.10;;;;;;5015834;28;20221;-69
2022/04/24 03:15:05;;;;;;;10.35;9.35;;;19.30;47.10;;;;;;5015421;28;20227;-69
2022/04/24 03:17:33;;;;;;;9.80;8.80;;;19.40;47.20;;;;;;5015493;28;20216;-70
2022/04/24 03:20:01;;;;;;;9.82;8.65;;;19.40;47.70;;;;;;5015568;28;20228;-70
2022/04/24 03:22:30;;;;;;;10.95;9.43;;;19.40;47.10;;;;;;5015426;28;20256;-69
2022/04/24 03:24:57;;;;;;;9.75;8.55;;;19.40;47.00;;;;;;5015221;28;20220;-70
2022/04/24 03:27:25;;;;;;;10.27;9.20;;;19.40;47.10;;;;;;5015249;28;20193;-70
2022/04/24 03:29:52;;;;;;;9.85;8.77;;;19.40;47.60;;;;;;5016418;28;20224;-70
2022/04/24 03:32:19;;;;;;;9.95;8.95;;;19.40;46.80;;;;;;5015080;28;20200;-70
2022/04/24 03:34:46;;;;;;;11.05;9.20;;;19.50;46.90;;;;;;5015384;28;20225;-70
2022/04/24 03:37:15;;;;;;;9.38;8.38;;;19.50;46.80;;;;;;5015085;28;20216;-70
2022/04/24 03:39:42;;;;;;;9.82;8.82;;;19.50;46.70;;;;;;5014919;28;20207;-70
2022/04/24 03:42:10;;;;;;;9.50;8.48;;;19.50;47.20;;;;;;5014970;28;20201;-70
2022/04/24 03:44:37;;;;;;;9.00;8.10;;;19.50;46.50;;;;;;5014954;28;20274;-70
2022/04/24 03:47:06;;;;;;;9.55;8.65;;;19.60;46.50;;;;;;5016616;28;20271;-69
2022/04/24 03:49:32;;;;;;;10.48;9.35;;;19.60;46.40;;;;;;5016043;28;20277;-69
2022/04/24 03:52:00;;;;;;;10.20;9.02;;;19.70;46.40;;;;;;5014766;28;20659;-70
2022/04/24 03:54:28;;;;;;;9.68;8.77;;;19.70;46.20;;;;;;5016053;28;20217;-70
2022/04/24 03:56:55;;;;;;;9.48;8.27;;;19.70;46.10;;;;;;5014625;28;20252;-70
2022/04/24 03:59:22;;;;;;;9.45;8.55;;;19.70;46.10;;;;;;5014618;28;20251;-70
2022/04/24 04:01:49;;;;;;;10.30;9.30;;;19.70;45.90;;;;;;5014662;28;20199;-70
2022/04/24 04:04:16;;;;;;;9.63;8.73;;;19.80;46.60;;;;;;5014561;28;20212;-70
2022/04/24 04:06:44;;;;;;;10.32;9.32;;;19.80;45.80;;;;;;5014480;28;20193;-70
2022/04/24 04:09:11;;;;;;;9.65;8.65;;;19.80;46.40;;;;;;5014867;28;20197;-70
2022/04/24 04:11:40;;;;;;;9.70;8.73;;;19.80;45.60;;;;;;5014367;28;20670;-70
2022/04/24 04:14:07;;;;;;;10.02;9.02;;;19.80;45.70;;;;;;5014428;28;20303;-69
2022/04/24 04:16:34;;;;;;;9.45;8.50;;;19.80;45.70;;;;;;5014371;28;20220;-70
2022/04/24 04:19:01;;;;;;;9.27;8.38;;;19.80;45.60;;;;;;5014452;28;20212;-70
2022/04/24 04:21:28;;;;;;;9.45;8.48;;;19.80;45.60;;;;;;5015818;28;20264;-71
2022/04/24 04:23:56;;;;;;;9.55;8.40;;;19.80;45.60;;;;;;5014144;28;20267;-70
2022/04/24 04:26:23;;;;;;;9.13;8.18;;;19.80;45.60;;;;;;5015283;28;20666;-71
2022/04/24 04:28:51;;;;;;;9.00;8.10;;;19.80;45.60;;;;;;5014138;28;20197;-70
2022/04/24 04:31:19;;;;;;;9.45;8.55;;;19.80;45.60;;;;;;5014114;28;20201;-70
2022/04/24 04:33:46;;;;;;;9.07;8.15;;;19.80;45.60;;;;;;5013999;28;20244;-70
2022/04/24 04:36:13;;;;;;;8.88;7.97;;;19.80;45.60;;;;;;5014203;28;20221;-70
2022/04/24 04:38:40;;;;;;;9.60;8.40;;;19.80;45.60;;;;;;5013994;28;20200;-70
2022/04/24 04:41:08;;;;;;;9.52;8.10;;;19.80;45.60;;;;;;5015539;28;20188;-70
2022/04/24 04:43:35;;;;;;;9.35;8.40;;;19.80;45.60;;;;;;5013896;28;20220;-70
2022/04/24 04:46:04;;;;;;;8.15;7.43;;;19.80;45.60;;;;;;5013766;28;20208;-69
2022/04/24 04:48:31;;;;;;;10.32;7.90;;;19.90;45.60;;;;;;5015132;28;20689;-70
2022/04/24 04:50:58;;;;;;;7.63;6.93;;;19.80;45.30;;;;;;5013831;28;20742;-69
2022/04/24 04:53:25;;;;;;;7.78;7.07;;;19.80;45.30;;;;;;5013469;28;20310;-69
2022/04/24 04:55:52;;;;;;;7.60;6.88;;;19.80;45.20;;;;;;5013662;28;20208;-70
2022/04/24 04:58:19;;;;;;;7.40;6.68;;;19.90;45.30;;;;;;5014855;28;20189;-69
2022/04/24 05:00:46;;;;;;;7.47;6.78;;;19.80;45.70;;;;;;5013494;28;20666;-69
2022/04/24 05:03:15;;;;;;;6.82;6.10;;;19.90;45.10;;;;;;5014753;28;20185;-69
2022/04/24 05:05:43;;;;;;;7.18;6.47;;;19.90;45.00;;;;;;5013340;28;20219;-69
2022/04/24 05:08:10;;;;;;;6.15;5.55;;;19.90;45.00;;;;;;5013348;28;20619;-70
2022/04/24 05:10:37;;;;;;;6.38;5.68;;;19.90;45.00;;;;;;5013523;28;20201;-70
2022/04/24 05:13:05;;;;;;;6.68;5.80;;;19.90;44.90;;;;;;5013278;28;20204;-70
2022/04/24 05:15:32;;;;;;;6.57;5.78;;;19.90;44.90;;;;;;5013315;28;20244;-70
2022/04/24 05:17:59;;;;;;;6.53;5.63;;;19.90;44.90;;;;;;5012806;28;20224;-70
2022/04/24 05:20:27;;;;;;;6.45;5.80;;;19.90;44.80;;;;;;5014674;28;20192;-70
2022/04/24 05:23:02;;;;;;;6.50;5.88;;;19.90;44.80;;;;;;5013354;28;20193;-70
2022/04/24 05:25:29;;;;;;;5.53;4.97;;;19.90;44.70;;;;;;5013489;28;20203;-70
2022/04/24 05:27:57;;;;;;;6.93;6.22;;;19.90;44.70;;;;;;5014675;28;20239;-70
2022/04/24 05:30:24;;;;;;;6.82;5.57;;;19.90;44.70;;;;;;5013170;28;20254;-70
2022/04/24 05:32:51;;;;;;;5.97;5.38;;;19.90;44.60;;;;;;5012994;28;20384;-70
2022/04/24 05:35:18;;;;;;;6.10;5.50;;;19.90;44.70;;;;;;5012876;28;20630;-70
2022/04/24 05:37:48;;;;;;;5.75;4.57;;;19.90;44.50;;;;;;5012767;28;20213;-70
2022/04/24 05:40:15;;;;;;;6.30;5.70;;;19.90;44.60;;;;;;5014053;28;20192;-70
2022/04/24 05:42:45;;;;;;;5.70;5.20;;;19.90;44.40;;;;;;5012860;28;20196;-70
2022/04/24 05:45:14;;;;;;;5.20;4.70;;;19.90;44.50;;;;;;5013974;28;20349;-70
2022/04/24 05:47:42;;;;;;;5.20;4.70;;;19.90;44.50;;;;;;5014638;28;20177;-70
2022/04/24 05:50:09;;;;;;;5.80;5.18;;;19.90;44.50;;;;;;5012925;28;20203;-70
2022/04/24 05:52:36;;;;;;;5.72;4.80;;;19.90;44.30;;;;;;5012893;28;20640;-70
2022/04/24 05:55:05;;;;;;;5.00;4.30;;;19.90;44.40;;;;;;5012541;28;20323;-70
2022/04/24 05:57:32;;;;;;;5.43;4.80;;;19.90;44.40;;;;;;5012771;28;20220;-70
2022/04/24 05:59:59;;;;;;;6.15;5.55;;;19.90;44.40;;;;;;5013543;28;20596;-70
2022/04/24 06:02:26;;;;;;;5.32;4.82;;;19.90;44.30;;;;;;5014078;28;20188;-70
2022/04/24 06:04:54;;;;;;;5.82;5.18;;;19.90;44.30;;;;;;5012657;28;20221;-69
2022/04/24 06:07:23;;;;;;;5.18;4.53;;;19.90;44.30;;;;;;5014750;28;20208;-70
2022/04/24 06:09:50;;;;;;;5.40;4.90;;;19.90;44.20;;;;;;5012780;28;20232;-70
2022/04/24 06:12:19;;;;;;;4.57;4.18;;;19.90;44.20;;;;;;5012564;28;20197;-70
2022/04/24 06:14:46;;;;;;;5.13;4.60;;;19.90;44.20;;;;;;5012665;28;20216;-70
2022/04/24 06:17:13;;;;;;;4.95;4.38;;;19.90;44.20;;;;;;5012864;28;20513;-70
2022/04/24 06:19:40;;;;;;;5.13;4.63;;;19.90;44.10;;;;;;5012444;28;20212;-70
2022/04/24 06:22:07;;;;;;;6.18;4.78;;;19.90;44.20;;;;;;5012631;28;20207;-70
2022/04/24 06:24:34;;;;;;;5.25;4.75;;;19.90;44.10;;;;;;5013543;28;20212;-70
2022/04/24 06:27:01;;;;;;;4.28;3.97;;;19.90;44.20;;;;;;5013541;28;20192;-69
2022/04/24 06:29:30;;;;;;;6.13;4.72;;;19.90;44.20;;;;;;5014445;28;20239;-70
2022/04/24 06:31:57;;;;;;;5.00;4.50;;;19.90;44.80;;;;;;5017909;28;20193;-70
2022/04/24 06:34:24;;;;;;;5.15;4.65;;;19.90;44.10;;;;;;5017773;28;20236;-70
2022/04/24 06:36:51;;;;;;;5.22;4.72;;;19.90;44.10;;;;;;5016400;28;20221;-70
2022/04/24 06:39:18;;;;;;;4.80;4.30;;;19.90;44.00;;;;;;5017136;28;20662;-70
2022/04/24 06:41:45;;;;;;;4.10;3.72;;;19.90;44.00;;;;;;5016285;28;20204;-70
2022/04/24 06:44:24;;;;;;;4.88;4.45;;;19.90;43.90;;;;;;5016243;28;20220;-70
2022/04/24 06:46:52;;;;;;;4.38;3.97;;;19.90;44.00;;;;;;5017464;28;20606;-70
2022/04/24 06:49:19;;;;;;;5.10;4.60;;;19.90;43.90;;;;;;5016226;28;20279;-70
2022/04/24 06:51:46;;;;;;;4.40;3.95;;;20.00;43.90;;;;;;5016013;28;20291;-70
2022/04/24 06:54:13;;;;;;;4.53;4.13;;;19.90;43.90;;;;;;5016393;28;20227;-70
2022/04/24 06:56:41;;;;;;;4.22;3.83;;;19.90;44.00;;;;;;5016168;28;20203;-70
2022/04/24 06:59:07;;;;;;;4.93;4.45;;;20.00;44.60;;;;;;5017286;28;20193;-70
2022/04/24 07:01:35;;;;;;;4.82;4.15;;;19.90;43.90;;;;;;5016303;28;20212;-70
2022/04/24 07:04:03;;;;;;;4.32;3.92;;;19.90;43.90;;;;;;5023405;28;20223;-70
2022/04/24 07:06:30;;;;;;;4.63;4.22;;;19.90;43.80;;;;;;5017894;28;20201;-70
2022/04/24 07:08:57;;;;;;;3.97;3.63;;;20.00;43.90;;;;;;5015692;28;20201;-70
2022/04/24 07:11:24;;;;;;;4.40;3.95;;;19.90;43.80;;;;;;5017060;28;20193;-70
2022/04/24 07:13:51;;;;;;;4.38;3.97;;;20.00;43.80;;;;;;5016729;28;20208;-70
2022/04/24 07:16:18;;;;;;;4.43;3.95;;;20.00;43.80;;;;;;5015577;28;20192;-69
2022/04/24 07:18:45;;;;;;;4.00;3.60;;;20.00;43.90;;;;;;5015289;28;20267;-70
2022/04/24 07:21:13;;;;;;;4.50;4.10;;;20.00;43.90;;;;;;5016646;28;20181;-70
2022/04/24 07:23:41;;;;;;;4.25;3.85;;;19.90;43.80;;;;;;5015331;28;20218;-70
2022/04/24 07:26:07;;;;;;;4.80;3.90;;;20.00;43.90;;;;;;5015393;28;20207;-70
2022/04/24 07:28:36;;;;;;;3.60;3.30;;;20.00;43.90;;;;;;5015506;28;20205;-70
2022/04/24 07:31:03;;;;;;;3.70;3.40;;;20.00;43.80;;;;;;5015386;28;20259;-69
2022/04/24 07:33:30;;;;;;;5.30;4.05;;;20.00;43.90;;;;;;5015089;28;20220;-69
2022/04/24 07:35:57;;;;;;;4.30;3.47;;;20.00;43.80;;;;;;5016595;28;20566;-70
2022/04/24 07:38:25;;;;;;;4.32;3.90;;;20.00;43.80;;;;;;5015059;28;20232;-70
2022/04/24 07:40:53;;;;;;;4.20;3.80;;;20.00;43.80;;;;;;5014452;28;20193;-70
2022/04/24 07:43:20;;;;;;;3.40;3.10;;;20.00;43.80;;;;;;5014889;28;20197;-70
2022/04/24 07:45:48;;;;;;;4.28;3.88;;;20.10;43.80;;;;;;5014945;28;20569;-70
2022/04/24 07:48:16;;;;;;;4.13;3.72;;;20.00;43.80;;;;;;5014974;28;20201;-70
2022/04/24 07:50:44;;;;;;;4.10;3.70;;;20.00;43.80;;;;;;5014895;28;20250;-70
2022/04/24 07:53:11;;;;;;;4.22;3.83;;;20.00;43.80;;;;;;5014937;28;20193;-70
2022/04/24 07:55:40;;;;;;;4.28;3.40;;;20.00;43.80;;;;;;5014952;28;20243;-70
2022/04/24 07:58:08;;;;;;;4.22;3.83;;;20.00;43.80;;;;;;5014692;28;20223;-70
2022/04/24 08:00:35;;;;;;;3.60;3.30;;;20.00;43.80;;;;;;5014658;28;20209;-70
2022/04/24 08:03:02;;;;;;;3.80;3.50;;;20.10;43.80;;;;;;5016037;28;20239;-70
2022/04/24 08:05:30;;;;;;;3.58;3.28;;;20.10;43.80;;;;;;5014629;28;20203;-70
2022/04/24 08:07:58;;;;;;;3.35;3.05;;;20.10;43.80;;;;;;5014585;28;20193;-70
2022/04/24 08:10:30;;;;;;;3.55;3.25;;;20.10;43.90;;;;;;5015731;28;20189;-70
2022/04/24 08:12:58;;;;;;;3.75;3.45;;;20.10;43.80;;;;;;5016090;28;20177;-70
2022/04/24 08:15:25;;;;;;;3.80;3.50;;;20.10;43.80;;;;;;5014473;28;20223;-70
2022/04/24 08:17:52;;;;;;;3.67;3.38;;;20.10;43.80;;;;;;5015810;28;20215;-70
2022/04/24 08:20:19;;;;;;;2.60;2.40;;;20.10;43.80;;;;;;5014286;28;20213;-70
2022/04/24 08:25:22;;;;;;;3.50;3.20;;;20.10;43.60;;;;;;5004773;23;20237;-71
2022/04/24 08:27:49;;;;;;;3.88;3.40;;;20.20;43.70;;;;;;4978435;28;20567;-71
2022/04/24 08:30:18;;;;;;;2.95;2.70;;;20.20;43.50;;;;;;4996049;28;20197;-71
2022/04/24 08:32:46;;;;;;;3.40;3.10;;;20.20;44.00;;;;;;5119278;23;20249;-70
2022/04/24 08:35:14;;;;;;;3.30;2.65;;;20.20;43.80;;;;;;5012280;28;20259;-70
2022/04/24 08:37:41;;;;;;;3.50;3.20;;;20.20;44.40;;;;;;5014110;28;20307;-70
2022/04/24 08:40:09;;;;;;;3.45;3.15;;;20.20;45.40;;;;;;5013982;28;20204;-70
2022/04/24 08:42:36;;;;;;;3.33;3.00;;;20.20;46.70;;;;;;5112773;23;20254;-70
2022/04/24 08:45:04;;;;;;;3.20;2.97;;;20.30;46.00;;;;;;5129528;23;20598;-70
2022/04/24 08:47:33;;;;;;;2.97;2.70;;;20.30;45.80;;;;;;5137761;23;20807;-71
2022/04/24 08:50:00;;;;;;;4.07;3.33;;;20.40;46.10;;;;;;4994838;28;20208;-70
2022/04/24 08:52:28;;;;;;;3.58;3.28;;;20.40;46.10;;;;;;5104522;23;21557;-68
2022/04/24 08:57:56;;;;;;;226.82;128.48;;;20.50;45.90;;;;;;5141110;23;20371;-70
2022/04/24 09:00:23;;;;;;;169.40;100.95;;;20.50;47.80;;;;;;5013745;28;20300;-70
2022/04/24 09:02:52;;;;;;;98.38;55.17;;;20.50;48.90;;;;;;5014759;28;20189;-69
2022/04/24 09:05:19;;;;;;;72.95;41.30;;;20.50;47.90;;;;;;5029232;28;20251;-70
2022/04/24 09:07:46;;;;;;;56.20;36.20;;;20.60;47.30;;;;;;5014149;28;20195;-70
2022/04/24 09:10:13;;;;;;;56.85;34.45;;;20.60;47.00;;;;;;5013790;28;20212;-70
2022/04/24 09:12:41;;;;;;;54.35;32.28;;;20.60;46.60;;;;;;5013902;28;20200;-70
2022/04/24 09:15:09;;;;;;;50.00;29.10;;;20.60;46.30;;;;;;5030384;28;20252;-71
2022/04/24 09:17:36;;;;;;;45.33;27.60;;;20.70;47.00;;;;;;5015137;28;20204;-70
2022/04/24 09:20:19;;;;;;;47.65;25.75;;;20.70;47.10;;;;;;5194018;23;20211;-69
2022/04/24 09:22:47;;;;;;;43.03;26.35;;;20.70;46.90;;;;;;4992649;28;20284;-69
2022/04/24 09:25:14;;;;;;;45.38;24.65;;;20.80;46.70;;;;;;5013844;28;20216;-69
2022/04/24 09:27:41;;;;;;;42.25;25.25;;;20.80;46.60;;;;;;5028470;23;20599;-60
2022/04/24 09:30:11;;;;;;;34.53;20.88;;;20.80;46.30;;;;;;5045190;23;20221;-69
2022/04/24 09:32:45;;;;;;;34.78;22.98;;;20.80;46.30;;;;;;5013783;28;20669;-70
2022/04/24 09:35:22;;;;;;;32.13;18.08;;;20.80;46.30;;;;;;5107430;23;20239;-69
2022/04/24 09:37:49;;;;;;;28.20;17.98;;;20.80;46.30;;;;;;5121684;23;20286;-69
2022/04/24 09:40:17;;;;;;;28.17;16.90;;;20.80;46.40;;;;;;5220369;23;20235;-67
2022/04/24 09:45:24;;;;;;;22.80;15.68;;;20.80;47.50;;;;;;5013222;28;20235;-70
2022/04/24 09:47:57;;;;;;;23.60;13.98;;;20.80;46.30;;;;;;5132913;23;20232;-71
2022/04/24 09:50:29;;;;;;;24.75;15.98;;;20.80;46.50;;;;;;5016763;28;20188;-71
2022/04/24 09:52:56;;;;;;;20.42;13.38;;;20.80;46.60;;;;;;5035159;28;20185;-71
2022/04/24 09:55:23;;;;;;;22.67;13.70;;;20.80;46.40;;;;;;5036120;28;20223;-68
2022/04/24 09:57:50;;;;;;;22.55;13.10;;;20.80;46.20;;;;;;5036902;28;20223;-68
2022/04/24 10:00:18;;;;;;;26.33;15.15;;;20.80;46.30;;;;;;5037099;28;20195;-69
2022/04/24 10:02:46;;;;;;;21.75;13.90;;;20.70;45.80;;;;;;5036901;28;20195;-68
2022/04/24 10:05:13;;;;;;;23.55;13.40;;;20.70;45.80;;;;;;5036227;28;20216;-68
2022/04/24 10:07:42;;;;;;;21.25;13.15;;;20.70;45.80;;;;;;5084563;23;20249;-68
2022/04/24 10:10:10;;;;;;;20.05;11.60;;;20.70;46.30;;;;;;5013719;28;20204;-68
2022/04/24 10:12:37;;;;;;;21.52;12.65;;;20.70;45.60;;;;;;5014351;28;20195;-68
2022/04/24 10:15:06;;;;;;;22.15;12.57;;;20.70;45.00;;;;;;5026583;28;20316;-69
2022/04/24 10:17:53;;;;;;;22.48;12.73;;;20.70;45.00;;;;;;5014417;28;20542;-68
2022/04/24 10:20:43;;;;;;;24.00;12.25;;;20.80;45.20;;;;;;5108974;23;20184;-66
2022/04/24 10:23:11;;;;;;;19.45;10.68;;;20.80;45.20;;;;;;5072523;23;20597;-70
2022/04/24 10:25:39;;;;;;;22.60;10.77;;;20.80;45.10;;;;;;5016372;28;20292;-70
2022/04/24 10:28:11;;;;;;;15.90;10.15;;;20.80;45.20;;;;;;5035082;28;20566;-70
2022/04/24 10:30:38;;;;;;;18.77;10.15;;;20.80;45.20;;;;;;5035095;28;20227;-70
2022/04/24 10:33:18;;;;;;;19.75;10.43;;;20.80;45.20;;;;;;5018115;28;20230;-69
2022/04/24 10:35:52;;;;;;;15.68;8.15;;;20.80;45.00;;;;;;5018497;28;20578;-69
2022/04/24 10:38:21;;;;;;;16.50;9.50;;;20.80;45.60;;;;;;5018454;28;20212;-69
2022/04/24 10:40:59;;;;;;;16.40;8.57;;;20.80;45.00;;;;;;5018363;28;20283;-70
2022/04/24 10:43:26;;;;;;;17.45;9.45;;;20.90;45.00;;;;;;5035339;28;20294;-69
2022/04/24 10:45:53;;;;;;;16.13;8.68;;;20.90;44.90;;;;;;5033856;28;20200;-69
2022/04/24 10:48:21;;;;;;;13.18;7.95;;;20.80;44.80;;;;;;5034086;28;20184;-70
2022/04/24 10:50:48;;;;;;;14.57;7.38;;;20.90;44.80;;;;;;5015843;28;20203;-70
2022/04/24 10:53:15;;;;;;;13.48;7.35;;;20.90;44.80;;;;;;5015909;28;20196;-70
2022/04/24 10:55:43;;;;;;;12.73;7.43;;;20.90;44.80;;;;;;5032297;28;20203;-70
2022/04/24 10:58:10;;;;;;;11.75;7.18;;;20.90;44.80;;;;;;5032347;28;20216;-70
2022/04/24 11:00:38;;;;;;;9.90;6.50;;;20.90;44.80;;;;;;5015897;28;20658;-70
2022/04/24 11:03:06;;;;;;;11.80;6.32;;;20.90;44.70;;;;;;5032363;28;20574;-71
2022/04/24 11:05:37;;;;;;;9.70;6.22;;;20.90;44.70;;;;;;5032731;28;20193;-70
2022/04/24 11:08:04;;;;;;;12.48;6.82;;;20.90;44.70;;;;;;5015474;28;20199;-70
2022/04/24 11:10:31;;;;;;;12.98;6.88;;;20.90;44.60;;;;;;5032085;28;20200;-71
2022/04/24 11:12:59;;;;;;;9.82;6.28;;;20.90;44.60;;;;;;5015617;28;20637;-70
2022/04/24 11:15:28;;;;;;;10.57;5.93;;;20.90;44.80;;;;;;5033705;28;20200;-71
2022/04/24 11:17:56;;;;;;;11.00;5.82;;;20.90;44.70;;;;;;5036539;28;20199;-71
2022/04/24 11:20:27;;;;;;;11.05;5.40;;;20.90;44.50;;;;;;5036869;28;20192;-70
2022/04/24 11:22:56;;;;;;;10.55;5.82;;;20.90;45.30;;;;;;5035222;28;20212;-70
2022/04/24 11:25:24;;;;;;;9.98;5.30;;;20.90;44.70;;;;;;5035608;28;20226;-70
2022/04/24 11:27:52;;;;;;;9.40;5.18;;;20.90;44.60;;;;;;5018762;28;20197;-70
2022/04/24 11:30:21;;;;;;;10.65;5.70;;;20.90;44.50;;;;;;5018657;28;20199;-69
2022/04/24 11:32:58;;;;;;;8.32;4.78;;;20.90;44.50;;;;;;5018959;28;20231;-71
2022/04/24 11:35:26;;;;;;;8.98;4.55;;;20.90;45.10;;;;;;5036496;28;20215;-70
2022/04/24 11:37:53;;;;;;;6.40;4.20;;;21.00;44.80;;;;;;5035038;28;20196;-70
2022/04/24 11:40:20;;;;;;;8.57;4.50;;;21.00;44.70;;;;;;5036355;28;20211;-69
2022/04/24 11:42:47;;;;;;;8.00;4.35;;;21.00;44.60;;;;;;5036609;28;20657;-69
2022/04/24 11:51:02;;;;;;;7.45;4.00;;;21.00;44.50;;;;;;4995766;28;20283;-69
2022/04/24 11:53:29;;;;;;;8.80;4.18;;;21.00;44.40;;;;;;5026993;28;20683;-71
2022/04/24 11:56:02;;;;;;;7.75;3.95;;;21.00;44.40;;;;;;5035053;28;20196;-70
2022/04/24 11:58:35;;;;;;;6.47;4.00;;;21.10;44.40;;;;;;5034743;28;20308;-70
2022/04/24 12:01:02;;;;;;;6.45;3.83;;;21.10;44.40;;;;;;5018314;28;20196;-69
2022/04/24 12:03:32;;;;;;;6.15;3.53;;;21.10;44.40;;;;;;5036068;28;20212;-69
2022/04/24 12:06:00;;;;;;;6.53;4.03;;;21.00;44.30;;;;;;5034829;28;20579;-70
2022/04/24 12:08:27;;;;;;;7.05;3.55;;;21.10;44.40;;;;;;5034560;28;20245;-70
2022/04/24 12:10:55;;;;;;;7.35;3.97;;;21.10;44.30;;;;;;5018163;28;20670;-69
2022/04/24 12:13:22;;;;;;;6.82;3.00;;;21.10;44.30;;;;;;5035590;28;20592;-70
2022/04/24 12:15:53;;;;;;;4.68;3.00;;;21.10;45.00;;;;;;5017811;28;20200;-70
2022/04/24 12:18:24;;;;;;;5.22;3.42;;;21.10;44.40;;;;;;5018015;28;20210;-70
2022/04/24 12:20:52;;;;;;;5.60;3.45;;;21.10;44.40;;;;;;5034373;28;20268;-69
2022/04/24 12:23:20;;;;;;;4.43;3.22;;;21.10;44.40;;;;;;5035605;28;20192;-69
2022/04/24 12:25:48;;;;;;;4.68;3.22;;;21.10;44.20;;;;;;5035273;28;20234;-69
2022/04/24 12:28:27;;;;;;;5.03;3.40;;;21.10;44.20;;;;;;5035616;28;20192;-68
2022/04/24 12:30:53;;;;;;;5.72;3.85;;;21.10;44.30;;;;;;5035486;28;20180;-69
2022/04/24 12:33:21;;;;;;;5.90;3.42;;;21.20;44.20;;;;;;5017470;28;20212;-69
2022/04/24 12:35:48;;;;;;;6.80;3.30;;;21.20;44.30;;;;;;5035627;28;20662;-69
2022/04/24 12:38:17;;;;;;;5.25;2.88;;;21.20;44.40;;;;;;5017562;28;20640;-69
2022/04/24 12:40:54;;;;;;;5.82;3.05;;;21.20;44.40;;;;;;5035159;28;20191;-69
2022/04/24 12:43:25;;;;;;;4.25;2.92;;;21.20;44.30;;;;;;5017377;28;20243;-69
2022/04/24 12:45:52;;;;;;;4.53;3.05;;;21.20;44.30;;;;;;5017476;28;20203;-69
2022/04/24 12:48:19;;;;;;;3.72;2.78;;;21.20;44.40;;;;;;5033792;28;20204;-69
2022/04/24 12:50:48;;;;;;;4.68;3.25;;;21.20;44.30;;;;;;5017194;28;20231;-69
2022/04/24 12:53:17;;;;;;;4.88;2.95;;;21.20;44.20;;;;;;5034730;28;20184;-69
2022/04/24 12:55:44;;;;;;;4.85;2.83;;;21.30;44.30;;;;;;5017197;28;20196;-69
2022/04/24 12:58:14;;;;;;;3.08;2.50;;;21.30;44.30;;;;;;5017179;28;20291;-69
2022/04/24 13:00:41;;;;;;;3.63;2.50;;;21.30;44.30;;;;;;5018687;28;20212;-69
2022/04/24 13:03:09;;;;;;;6.85;2.85;;;21.30;44.40;;;;;;5016960;28;20200;-70